createdAt,value
2023-02-27T00:01:33.393Z,97318.31
2023-02-27T00:04:01.768Z,97317.99
2023-02-27T00:06:29.929Z,97315.48
2023-02-27T00:08:58.053Z,97316.34
2023-02-27T00:11:26.945Z,97314.96
2023-02-27T00:13:55.152Z,97314.11
2023-02-27T00:16:23.235Z,97306.52
2023-02-27T00:18:51.188Z,97299.48
2023-02-27T00:21:19.358Z,97302.23
2023-02-27T00:23:47.429Z,97311.66
2023-02-27T00:26:15.474Z,97312.95
2023-02-27T00:28:43.473Z,97313.91
2023-02-27T00:31:11.686Z,97304.48
2023-02-27T00:33:40.736Z,97302.45
2023-02-27T00:36:10.549Z,97301.73
2023-02-27T00:38:41.184Z,97299.23
2023-02-27T00:41:09.157Z,97298.48
2023-02-27T00:43:37.172Z,97301.06
2023-02-27T00:46:05.543Z,97302.58
2023-02-27T00:48:33.643Z,97307.29
2023-02-27T00:51:02.732Z,97310.92
2023-02-27T00:53:30.719Z,97313.55
2023-02-27T00:55:58.685Z,97315.55
2023-02-27T00:58:26.759Z,97318.02
2023-02-27T01:00:55.931Z,97315.59
2023-02-27T01:03:23.918Z,97309.36
2023-02-27T01:05:52.502Z,97309.36
2023-02-27T01:08:20.944Z,97311.52
2023-02-27T01:10:49.056Z,97313.65
2023-02-27T01:13:17.228Z,97318.19
2023-02-27T01:15:45.316Z,97311.52
2023-02-27T01:18:13.265Z,97319.64
2023-02-27T01:20:41.545Z,97318.09
2023-02-27T01:23:09.819Z,97319.15
2023-02-27T01:25:38.120Z,97318.07
2023-02-27T01:28:06.989Z,97311.60
2023-02-27T01:30:35.070Z,97309.63
2023-02-27T01:33:03.541Z,97310.16
2023-02-27T01:35:32.469Z,97313.23
2023-02-27T01:38:00.907Z,97317.00
2023-02-27T01:40:29.005Z,97319.98
2023-02-27T01:42:57.096Z,97314.73
2023-02-27T01:45:30.381Z,97308.56
2023-02-27T01:48:24.627Z,97308.91
2023-02-27T01:51:02.040Z,97311.71
2023-02-27T01:53:31.592Z,97306.99
2023-02-27T01:56:02.556Z,97307.52
2023-02-27T01:58:31.647Z,97303.04
2023-02-27T02:01:00.202Z,97304.67
2023-02-27T02:03:28.401Z,97304.70
2023-02-27T02:05:57.346Z,97310.77
2023-02-27T02:08:28.440Z,97307.47
2023-02-27T02:10:59.562Z,97311.67
2023-02-27T02:13:27.922Z,97306.82
2023-02-27T02:16:09.038Z,97306.78
2023-02-27T02:18:54.609Z,97310.11
2023-02-27T02:21:34.931Z,97318.35
2023-02-27T02:24:21.884Z,97328.80
2023-02-27T02:27:19.091Z,97328.46
2023-02-27T02:29:48.152Z,97321.23
2023-02-27T02:32:39.134Z,97316.89
2023-02-27T02:35:07.292Z,97319.69
2023-02-27T02:37:53.712Z,97331.75
2023-02-27T02:40:22.059Z,97340.99
2023-02-27T02:42:52.364Z,97346.08
2023-02-27T02:45:36.771Z,97351.83
2023-02-27T02:48:05.234Z,97350.11
2023-02-27T02:50:36.631Z,97347.66
2023-02-27T02:53:10.956Z,97343.45
2023-02-27T02:55:51.363Z,97345.33
2023-02-27T02:58:19.537Z,97348.45
2023-02-27T03:00:57.950Z,97349.30
2023-02-27T03:03:32.162Z,97351.66
2023-02-27T03:06:09.633Z,97350.52
2023-02-27T03:08:43.335Z,97357.19
2023-02-27T03:11:11.342Z,97358.73
2023-02-27T03:13:42.108Z,97361.71
2023-02-27T03:16:20.575Z,97365.95
2023-02-27T03:19:07.528Z,97373.11
2023-02-27T03:21:40.770Z,97371.65
2023-02-27T03:24:10.684Z,97371.75
2023-02-27T03:26:41.725Z,97377.48
2023-02-27T03:29:19.518Z,97382.44
2023-02-27T03:31:54.790Z,97383.53
2023-02-27T03:34:36.945Z,97384.80
2023-02-27T03:37:30.155Z,97385.15
2023-02-27T03:40:21.614Z,97384.17
2023-02-27T03:42:54.045Z,97389.52
2023-02-27T03:45:35.159Z,97389.25
2023-02-27T03:48:04.219Z,97395.25
2023-02-27T03:50:33.021Z,97393.83
2023-02-27T03:53:03.909Z,97393.73
2023-02-27T03:55:36.684Z,97390.52
2023-02-27T03:58:05.672Z,97397.43
2023-02-27T04:00:34.769Z,97398.57
2023-02-27T04:03:03.094Z,97398.34
2023-02-27T04:05:31.590Z,97398.02
2023-02-27T04:08:05.233Z,97408.38
2023-02-27T04:11:02.687Z,97409.40
2023-02-27T04:13:30.754Z,97415.34
2023-02-27T04:16:04.692Z,97419.13
2023-02-27T04:18:42.528Z,97420.89
2023-02-27T04:21:18.994Z,97418.19
2023-02-27T04:23:59.538Z,97415.09
2023-02-27T04:26:30.012Z,97415.83
2023-02-27T04:29:07.958Z,97419.11
2023-02-27T04:31:46.355Z,97424.40
2023-02-27T04:34:26.344Z,97428.02
2023-02-27T04:36:54.348Z,97431.91
2023-02-27T04:39:27.821Z,97433.70
2023-02-27T04:42:00.476Z,97439.53
2023-02-27T04:44:30.091Z,97439.74
2023-02-27T04:46:59.848Z,97440.59
2023-02-27T04:49:29.914Z,97439.52
2023-02-27T04:52:02.303Z,97439.02
2023-02-27T04:54:33.304Z,97440.25
2023-02-27T04:57:04.407Z,97448.81
2023-02-27T04:59:40.038Z,97455.40
2023-02-27T05:02:11.286Z,97463.66
2023-02-27T05:04:42.149Z,97471.15
2023-02-27T05:07:13.556Z,97470.35
2023-02-27T05:09:57.163Z,97475.40
2023-02-27T05:12:30.078Z,97477.50
2023-02-27T05:15:04.090Z,97479.98
2023-02-27T05:17:35.275Z,97482.41
2023-02-27T05:20:12.310Z,97485.34
2023-02-27T05:22:40.412Z,97494.55
2023-02-27T05:25:14.277Z,97499.67
2023-02-27T05:27:51.563Z,97500.08
2023-02-27T05:30:19.570Z,97503.60
2023-02-27T05:32:56.663Z,97513.05
2023-02-27T05:35:29.073Z,97519.98
2023-02-27T05:38:03.653Z,97523.52
2023-02-27T05:40:34.483Z,97525.71
2023-02-27T05:43:05.859Z,97530.11
2023-02-27T05:45:36.994Z,97535.45
2023-02-27T05:48:08.537Z,97540.98
2023-02-27T05:50:38.160Z,97548.05
2023-02-27T05:53:11.671Z,97556.97
2023-02-27T05:55:44.358Z,97561.42
2023-02-27T05:58:30.456Z,97557.61
2023-02-27T06:00:59.500Z,97563.39
2023-02-27T06:03:28.555Z,97566.48
2023-02-27T06:05:58.247Z,97570.23
2023-02-27T06:08:26.974Z,97574.90
2023-02-27T06:10:57.732Z,97583.44
2023-02-27T06:13:26.539Z,97585.59
2023-02-27T06:15:55.994Z,97588.54
2023-02-27T06:18:24.486Z,97596.48
2023-02-27T06:20:52.656Z,97596.18
2023-02-27T06:23:20.722Z,97596.93
2023-02-27T06:25:49.007Z,97596.95
2023-02-27T06:28:17.156Z,97601.00
2023-02-27T06:30:46.544Z,97607.29
2023-02-27T06:33:15.035Z,97608.42
2023-02-27T06:35:48.195Z,97612.73
2023-02-27T06:38:16.314Z,97616.24
2023-02-27T06:40:44.396Z,97616.16
2023-02-27T06:43:12.470Z,97623.05
2023-02-27T06:45:40.750Z,97630.33
2023-02-27T06:48:09.019Z,97632.45
2023-02-27T06:50:36.978Z,97629.40
2023-02-27T06:53:05.290Z,97630.06
2023-02-27T06:55:33.822Z,97632.90
2023-02-27T06:58:01.893Z,97632.67
2023-02-27T07:00:30.291Z,97635.84
2023-02-27T07:03:03.425Z,97634.89
2023-02-27T07:05:32.253Z,97638.77
2023-02-27T07:08:00.428Z,97642.20
2023-02-27T07:10:29.126Z,97646.66
2023-02-27T07:12:57.202Z,97648.52
2023-02-27T07:15:26.082Z,97648.91
2023-02-27T07:19:43.092Z,97658.10
2023-02-27T07:22:11.679Z,97657.97
2023-02-27T07:24:39.960Z,97661.44
2023-02-27T07:27:08.134Z,97662.43
2023-02-27T07:29:36.225Z,97669.07
2023-02-27T07:32:04.530Z,97665.83
2023-02-27T07:34:32.747Z,97668.29
2023-02-27T07:37:00.944Z,97677.97
2023-02-27T07:39:29.086Z,97683.21
2023-02-27T07:41:57.207Z,97688.18
2023-02-27T07:44:25.333Z,97693.65
2023-02-27T07:46:53.773Z,97701.54
2023-02-27T07:49:22.062Z,97701.14
2023-02-27T07:51:50.073Z,97704.77
2023-02-27T07:54:18.419Z,97710.17
2023-02-27T07:56:46.716Z,97711.27
2023-02-27T07:59:14.774Z,97706.86
2023-02-27T08:01:42.900Z,97710.78
2023-02-27T08:04:11.089Z,97710.20
2023-02-27T08:06:39.912Z,97716.49
2023-02-27T08:09:07.900Z,97720.66
2023-02-27T08:11:35.945Z,97723.26
2023-02-27T08:14:04.442Z,97729.95
2023-02-27T08:16:33.649Z,97734.29
2023-02-27T08:19:02.049Z,97738.21
2023-02-27T08:21:30.975Z,97739.03
2023-02-27T08:23:59.274Z,97745.58
2023-02-27T08:26:27.803Z,97747.30
2023-02-27T08:28:56.291Z,97751.92
2023-02-27T08:31:25.081Z,97759.16
2023-02-27T08:34:01.252Z,97756.75
2023-02-27T08:36:36.340Z,97759.34
2023-02-27T08:39:05.824Z,97768.26
2023-02-27T08:41:34.822Z,97773.15
2023-02-27T08:44:03.553Z,97779.73
2023-02-27T08:46:32.292Z,97780.20
2023-02-27T08:49:00.446Z,97784.98
2023-02-27T08:51:29.318Z,97789.45
2023-02-27T08:53:59.213Z,97798.83
2023-02-27T08:56:29.051Z,97804.61
2023-02-27T08:58:57.400Z,97802.35
2023-02-27T09:01:28.813Z,97803.28
2023-02-27T09:03:57.809Z,97811.34
2023-02-27T09:06:26.450Z,97818.09
2023-02-27T09:08:56.149Z,97824.56
2023-02-27T09:11:24.506Z,97829.54
2023-02-27T09:13:53.792Z,97837.69
2023-02-27T09:16:23.538Z,97841.54
2023-02-27T09:18:51.598Z,97845.83
2023-02-27T09:21:20.728Z,97847.38
2023-02-27T09:23:49.025Z,97848.38
2023-02-27T09:26:17.710Z,97850.69
2023-02-27T09:28:45.974Z,97852.29
2023-02-27T09:31:14.264Z,97852.17
2023-02-27T09:33:45.482Z,97855.63
2023-02-27T09:36:14.067Z,97862.63
2023-02-27T09:38:42.220Z,97867.73
2023-02-27T09:41:39.309Z,97868.55
2023-02-27T09:44:17.961Z,97874.38
2023-02-27T09:46:46.639Z,97880.41
2023-02-27T09:49:20.300Z,97886.84
2023-02-27T09:51:53.429Z,97888.25
2023-02-27T09:54:22.162Z,97896.59
2023-02-27T09:56:57.297Z,97898.95
2023-02-27T09:59:36.160Z,97903.64
2023-02-27T10:02:23.164Z,97904.36
2023-02-27T10:05:22.464Z,97905.70
2023-02-27T10:08:09.251Z,97902.27
2023-02-27T10:10:41.596Z,97907.20
2023-02-27T10:13:26.309Z,97909.09
2023-02-27T10:15:55.509Z,97912.27
2023-02-27T10:18:35.751Z,97914.90
2023-02-27T10:21:12.917Z,97922.02
2023-02-27T10:23:49.798Z,97918.02
2023-02-27T10:26:26.452Z,97920.40
2023-02-27T10:28:54.644Z,97923.62
2023-02-27T10:31:27.427Z,97922.17
2023-02-27T10:33:58.098Z,97921.80
2023-02-27T10:36:34.133Z,97920.11
2023-02-27T10:39:07.870Z,97924.92
2023-02-27T10:41:38.058Z,97930.65
2023-02-27T10:44:06.508Z,97927.91
2023-02-27T10:46:38.627Z,97929.65
2023-02-27T10:49:19.156Z,97935.04
2023-02-27T10:52:07.485Z,97948.70
2023-02-27T10:54:35.705Z,97953.88
2023-02-27T10:57:18.469Z,97959.77
2023-02-27T10:59:54.115Z,97960.50
2023-02-27T11:02:27.806Z,97967.64
2023-02-27T11:04:59.094Z,97974.56
2023-02-27T11:07:32.464Z,97983.42
2023-02-27T11:10:23.606Z,97989.19
2023-02-27T11:13:07.001Z,97983.70
2023-02-27T11:15:38.235Z,97991.21
2023-02-27T11:18:21.791Z,97987.53
2023-02-27T11:20:50.922Z,97984.14
2023-02-27T11:23:20.597Z,97986.42
2023-02-27T11:25:49.379Z,97988.31
2023-02-27T11:28:17.442Z,97999.30
2023-02-27T11:30:56.566Z,98004.77
2023-02-27T11:33:26.480Z,98003.00
2023-02-27T11:35:58.455Z,98007.54
2023-02-27T11:38:29.986Z,98011.65
2023-02-27T11:41:02.169Z,98013.34
2023-02-27T11:43:42.876Z,98014.17
2023-02-27T11:46:46.953Z,98016.23
2023-02-27T11:49:24.944Z,98022.20
2023-02-27T11:52:08.381Z,98026.34
2023-02-27T11:54:55.224Z,98026.46
2023-02-27T11:57:39.055Z,98031.18
2023-02-27T12:00:22.467Z,98038.21
2023-02-27T12:02:55.360Z,98042.13
2023-02-27T12:05:57.408Z,98045.55
2023-02-27T12:08:49.111Z,98055.41
2023-02-27T12:11:28.539Z,98058.56
2023-02-27T12:14:42.328Z,98061.67
2023-02-27T12:17:19.855Z,98067.47
2023-02-27T12:20:22.234Z,98072.63
2023-02-27T12:22:54.270Z,98080.21
2023-02-27T12:25:35.241Z,98084.36
2023-02-27T12:28:12.771Z,98084.30
2023-02-27T12:31:08.562Z,98089.73
2023-02-27T12:33:47.444Z,98089.70
2023-02-27T12:36:15.948Z,98093.56
2023-02-27T12:38:44.245Z,98099.69
2023-02-27T12:41:44.137Z,98104.59
2023-02-27T12:44:27.348Z,98110.33
2023-02-27T12:47:15.978Z,98117.45
2023-02-27T12:49:53.379Z,98118.63
2023-02-27T12:52:26.977Z,98124.37
2023-02-27T12:55:13.324Z,98126.68
2023-02-27T12:57:53.391Z,98131.10
2023-02-27T13:00:28.917Z,98139.92
2023-02-27T13:03:05.179Z,98149.39
2023-02-27T13:05:43.141Z,98153.11
2023-02-27T13:08:20.298Z,98155.06
2023-02-27T13:10:59.993Z,98166.63
2023-02-27T13:13:44.208Z,98173.04
2023-02-27T13:16:19.140Z,98172.25
2023-02-27T13:19:19.691Z,98173.70
2023-02-27T13:21:54.663Z,98176.89
2023-02-27T13:24:28.734Z,98182.54
2023-02-27T13:27:07.826Z,98184.83
2023-02-27T13:29:42.111Z,98186.54
2023-02-27T13:32:32.725Z,98189.36
2023-02-27T13:35:17.268Z,98192.66
2023-02-27T13:37:56.537Z,98198.63
2023-02-27T13:40:36.668Z,98202.21
2023-02-27T13:43:24.659Z,98205.58
2023-02-27T13:46:00.978Z,98205.63
2023-02-27T13:48:45.268Z,98210.86
2023-02-27T13:51:34.701Z,98212.56
2023-02-27T13:54:09.069Z,98211.66
2023-02-27T13:56:37.720Z,98212.73
2023-02-27T13:59:28.965Z,98214.77
2023-02-27T14:01:58.771Z,98216.06
2023-02-27T14:04:33.094Z,98221.89
2023-02-27T14:07:12.705Z,98228.25
2023-02-27T14:09:45.158Z,98225.81
2023-02-27T14:12:46.575Z,98224.24
2023-02-27T14:15:18.003Z,98222.32
2023-02-27T14:17:50.911Z,98222.45
2023-02-27T14:20:20.599Z,98223.58
2023-02-27T14:23:26.230Z,98232.87
2023-02-27T14:25:58.036Z,98241.14
2023-02-27T14:28:37.738Z,98246.58
2023-02-27T14:31:30.038Z,98249.14
2023-02-27T14:34:05.396Z,98254.77
2023-02-27T14:36:41.916Z,98256.79
2023-02-27T14:39:26.609Z,98256.53
2023-02-27T14:42:03.876Z,98255.89
2023-02-27T14:44:43.704Z,98264.86
2023-02-27T14:47:17.988Z,98269.85
2023-02-27T14:49:47.785Z,98271.59
2023-02-27T14:52:21.875Z,98273.00
2023-02-27T14:54:52.156Z,98273.79
2023-02-27T14:57:24.204Z,98274.44
2023-02-27T14:59:54.385Z,98275.25
2023-02-27T15:02:30.562Z,98281.30
2023-02-27T15:05:01.923Z,98284.66
2023-02-27T15:07:32.485Z,98285.84
2023-02-27T15:10:04.726Z,98288.37
2023-02-27T15:12:38.399Z,98287.05
2023-02-27T15:15:09.148Z,98290.55
2023-02-27T15:17:39.273Z,98296.49
2023-02-27T15:20:29.839Z,98304.77
2023-02-27T15:23:02.173Z,98311.89
2023-02-27T15:25:32.000Z,98318.02
2023-02-27T15:28:06.333Z,98322.86
2023-02-27T15:30:34.742Z,98328.25
2023-02-27T15:33:02.979Z,98338.14
2023-02-27T15:35:37.101Z,98342.98
2023-02-27T15:38:06.284Z,98347.65
2023-02-27T15:40:34.663Z,98355.91
2023-02-27T15:43:03.502Z,98358.67
2023-02-27T15:45:35.254Z,98359.13
2023-02-27T15:48:04.316Z,98354.92
2023-02-27T15:50:36.905Z,98355.05
2023-02-27T15:53:07.859Z,98359.31
2023-02-27T15:55:39.830Z,98358.59
2023-02-27T15:58:21.174Z,98364.96
2023-02-27T16:00:52.039Z,98369.23
2023-02-27T16:03:23.926Z,98373.61
2023-02-27T16:05:53.357Z,98381.08
2023-02-27T16:08:21.866Z,98383.66
2023-02-27T16:10:51.250Z,98390.20
2023-02-27T16:13:40.839Z,98394.25
2023-02-27T16:16:36.101Z,98395.16
2023-02-27T16:19:29.518Z,98405.39
2023-02-27T16:22:14.909Z,98414.48
2023-02-27T16:24:43.869Z,98420.98
2023-02-27T16:27:27.646Z,98426.79
2023-02-27T16:30:02.553Z,98430.25
2023-02-27T16:32:40.056Z,98435.46
2023-02-27T16:35:17.775Z,98441.15
2023-02-27T16:37:47.973Z,98442.31
2023-02-27T16:40:20.660Z,98443.03
2023-02-27T16:42:49.849Z,98440.02
2023-02-27T16:45:22.353Z,98441.90
2023-02-27T16:47:53.275Z,98446.86
2023-02-27T16:50:24.253Z,98453.88
2023-02-27T16:52:52.482Z,98457.71
2023-02-27T16:55:20.955Z,98463.23
2023-02-27T16:57:52.593Z,98464.78
2023-02-27T17:00:22.976Z,98467.17
2023-02-27T17:02:52.031Z,98468.96
2023-02-27T17:05:20.191Z,98469.31
2023-02-27T17:07:48.781Z,98472.23
2023-02-27T17:10:19.172Z,98479.15
2023-02-27T17:12:48.112Z,98485.09
2023-02-27T17:15:16.766Z,98487.91
2023-02-27T17:17:45.427Z,98482.71
2023-02-27T17:20:14.886Z,98477.88
2023-02-27T17:22:45.245Z,98484.12
2023-02-27T17:25:14.253Z,98492.23
2023-02-27T17:27:43.899Z,98498.85
2023-02-27T17:30:13.434Z,98506.52
2023-02-27T17:32:41.666Z,98506.55
2023-02-27T17:35:10.659Z,98507.52
2023-02-27T17:37:39.030Z,98508.23
2023-02-27T17:40:08.367Z,98512.86
2023-02-27T17:42:37.394Z,98516.10
2023-02-27T17:45:07.369Z,98514.54
2023-02-27T17:47:36.182Z,98518.98
2023-02-27T17:50:05.325Z,98522.50
2023-02-27T17:52:36.990Z,98522.94
2023-02-27T17:55:06.422Z,98528.30
2023-02-27T17:57:38.689Z,98525.74
2023-02-27T18:00:14.532Z,98526.59
2023-02-27T18:02:46.118Z,98528.26
2023-02-27T18:05:14.745Z,98530.98
2023-02-27T18:07:43.228Z,98530.80
2023-02-27T18:10:14.172Z,98529.10
2023-02-27T18:12:43.379Z,98534.09
2023-02-27T18:15:11.716Z,98540.13
2023-02-27T18:17:39.805Z,98540.73
2023-02-27T18:20:09.212Z,98538.26
2023-02-27T18:22:37.468Z,98540.86
2023-02-27T18:25:06.458Z,98544.19
2023-02-27T18:27:34.509Z,98546.30
2023-02-27T18:30:03.734Z,98548.98
2023-02-27T18:32:31.799Z,98551.79
2023-02-27T18:35:00.105Z,98552.11
2023-02-27T18:37:28.247Z,98553.78
2023-02-27T18:39:56.664Z,98547.33
2023-02-27T18:42:24.988Z,98549.17
2023-02-27T18:44:53.513Z,98552.45
2023-02-27T18:47:21.688Z,98555.23
2023-02-27T18:49:51.360Z,98562.23
2023-02-27T18:52:19.402Z,98562.38
2023-02-27T18:54:47.611Z,98568.44
2023-02-27T18:57:15.990Z,98564.25
2023-02-27T18:59:46.554Z,98562.33
2023-02-27T19:02:18.220Z,98562.63
2023-02-27T19:04:48.117Z,98559.59
2023-02-27T19:07:17.481Z,98559.35
2023-02-27T19:09:45.414Z,98564.38
2023-02-27T19:12:13.458Z,98567.52
2023-02-27T19:14:41.799Z,98564.89
2023-02-27T19:17:09.901Z,98567.73
2023-02-27T19:19:38.373Z,98565.45
2023-02-27T19:22:06.623Z,98566.91
2023-02-27T19:24:34.798Z,98573.92
2023-02-27T19:27:03.065Z,98577.97
2023-02-27T19:29:31.249Z,98582.16
2023-02-27T19:31:59.440Z,98578.71
2023-02-27T19:34:28.203Z,98582.91
2023-02-27T19:36:56.258Z,98589.52
2023-02-27T19:39:24.549Z,98599.65
2023-02-27T19:41:52.718Z,98601.69
2023-02-27T19:44:21.612Z,98605.71
2023-02-27T19:46:52.225Z,98608.80
2023-02-27T19:49:20.723Z,98610.43
2023-02-27T19:51:48.900Z,98606.93
2023-02-27T19:54:19.638Z,98604.02
2023-02-27T19:56:48.120Z,98606.83
2023-02-27T19:59:17.914Z,98613.08
2023-02-27T20:01:45.984Z,98608.73
2023-02-27T20:04:14.556Z,98611.66
2023-02-27T20:06:44.969Z,98613.98
2023-02-27T20:09:15.725Z,98614.27
2023-02-27T20:11:45.989Z,98616.09
2023-02-27T20:14:16.673Z,98619.30
2023-02-27T20:16:45.485Z,98623.15
2023-02-27T20:19:15.922Z,98615.46
2023-02-27T20:21:46.425Z,98618.16
2023-02-27T20:24:18.113Z,98623.28
2023-02-27T20:26:54.014Z,98623.42
2023-02-27T20:29:24.551Z,98622.98
2023-02-27T20:31:55.438Z,98624.54
2023-02-27T20:34:26.595Z,98621.77
2023-02-27T20:36:56.452Z,98626.72
2023-02-27T20:39:25.307Z,98627.05
2023-02-27T20:41:53.510Z,98624.45
2023-02-27T20:44:21.607Z,98623.38
2023-02-27T20:46:49.831Z,98626.62
2023-02-27T20:49:19.779Z,98626.52
2023-02-27T20:51:47.943Z,98624.08
2023-02-27T20:54:20.793Z,98627.89
2023-02-27T20:56:54.533Z,98624.55
2023-02-27T20:59:26.785Z,98622.62
2023-02-27T21:01:55.564Z,98618.77
2023-02-27T21:04:45.864Z,98626.78
2023-02-27T21:07:21.400Z,98633.29
2023-02-27T21:09:50.835Z,98630.41
2023-02-27T21:12:18.832Z,98630.69
2023-02-27T21:14:48.744Z,98629.36
2023-02-27T21:17:16.774Z,98627.65
2023-02-27T21:19:45.246Z,98617.23
2023-02-27T21:22:19.136Z,98615.80
2023-02-27T21:24:50.190Z,98621.98
2023-02-27T21:27:20.858Z,98622.40
2023-02-27T21:29:50.011Z,98616.45
2023-02-27T21:32:18.854Z,98619.31
2023-02-27T21:34:47.182Z,98619.55
2023-02-27T21:37:15.361Z,98609.99
2023-02-27T21:39:45.510Z,98616.95
2023-02-27T21:42:13.648Z,98616.27
2023-02-27T21:44:41.923Z,98619.80
2023-02-27T21:47:10.307Z,98628.20
2023-02-27T21:49:39.490Z,98637.02
2023-02-27T21:52:07.845Z,98652.41
2023-02-27T21:54:36.258Z,98660.77
2023-02-27T21:57:05.574Z,98662.04
2023-02-27T21:59:33.640Z,98657.52
2023-02-27T22:02:02.154Z,98659.25
2023-02-27T22:04:30.682Z,98662.38
2023-02-27T22:06:58.957Z,98655.84
2023-02-27T22:09:27.023Z,98648.30
2023-02-27T22:11:55.199Z,98659.91
2023-02-27T22:14:27.186Z,98668.48
2023-02-27T22:16:55.538Z,98666.78
2023-02-27T22:19:23.534Z,98677.60
2023-02-27T22:21:51.685Z,98688.22
2023-02-27T22:24:20.680Z,98694.20
2023-02-27T22:26:50.368Z,98704.36
2023-02-27T22:29:18.801Z,98709.84
2023-02-27T22:31:46.895Z,98697.83
2023-02-27T22:34:18.639Z,98691.88
2023-02-27T22:36:52.646Z,98695.80
2023-02-27T22:39:21.613Z,98697.70
2023-02-27T22:41:50.224Z,98695.86
2023-02-27T22:44:18.576Z,98691.73
2023-02-27T22:46:48.686Z,98688.43
2023-02-27T22:49:23.194Z,98683.89
2023-02-27T22:51:52.522Z,98677.45
2023-02-27T22:54:21.786Z,98674.35
2023-02-27T22:56:53.968Z,98668.55
2023-02-27T22:59:23.306Z,98666.21
2023-02-27T23:01:51.850Z,98666.73
2023-02-27T23:04:22.393Z,98672.20
2023-02-27T23:06:52.683Z,98674.64
2023-02-27T23:09:24.320Z,98678.23
2023-02-27T23:11:53.946Z,98680.14
2023-02-27T23:14:22.835Z,98680.30
2023-02-27T23:16:51.688Z,98682.58
2023-02-27T23:19:21.867Z,98680.23
2023-02-27T23:21:50.225Z,98677.86
2023-02-27T23:24:19.619Z,98684.59
2023-02-27T23:26:50.724Z,98682.73
2023-02-27T23:29:19.511Z,98683.84
2023-02-27T23:31:48.151Z,98682.55
2023-02-27T23:34:16.732Z,98684.46
2023-02-27T23:36:45.159Z,98686.83
2023-02-27T23:39:13.309Z,98687.73
2023-02-27T23:41:41.647Z,98686.08
2023-02-27T23:44:28.349Z,98690.10
2023-02-27T23:46:56.517Z,98692.15
2023-02-27T23:49:24.890Z,98693.54
2023-02-27T23:51:53.274Z,98697.44
2023-02-27T23:54:21.453Z,98707.41
2023-02-27T23:56:49.731Z,98713.39
2023-02-27T23:59:17.765Z,98709.87
